createdAt,value
2019-02-02T00:01:03.429Z,13.07
2019-02-02T00:03:35.243Z,13.57
2019-02-02T00:06:07.103Z,12.57
2019-02-02T00:08:38.863Z,14.17
2019-02-02T00:11:12.647Z,13.00
2019-02-02T00:13:45.381Z,12.80
2019-02-02T00:16:18.550Z,13.60
2019-02-02T00:18:51.271Z,12.87
2019-02-02T00:21:24.385Z,13.70
2019-02-02T00:23:57.405Z,13.23
2019-02-02T00:26:30.575Z,12.70
2019-02-02T00:29:03.683Z,13.30
2019-02-02T00:31:36.631Z,13.10
2019-02-02T00:34:09.497Z,13.03
2019-02-02T00:36:42.708Z,12.97
2019-02-02T00:39:15.918Z,12.90
2019-02-02T00:41:49.531Z,12.20
2019-02-02T00:44:23.362Z,12.83
2019-02-02T00:46:58.408Z,12.47
2019-02-02T00:49:33.407Z,14.53
2019-02-02T00:52:06.902Z,13.03
2019-02-02T00:54:39.684Z,12.87
2019-02-02T00:57:13.082Z,11.50
2019-02-02T00:59:46.246Z,11.73
2019-02-02T01:02:19.581Z,12.20
2019-02-02T01:04:52.666Z,12.83
2019-02-02T01:07:25.594Z,12.40
2019-02-02T01:09:58.837Z,13.00
2019-02-02T01:12:31.930Z,13.47
2019-02-02T01:15:06.319Z,12.47
2019-02-02T01:17:39.002Z,13.73
2019-02-02T01:20:12.191Z,14.80
2019-02-02T01:22:45.579Z,13.87
2019-02-02T01:25:18.239Z,14.77
2019-02-02T01:27:51.744Z,14.93
2019-02-02T01:30:24.868Z,14.70
2019-02-02T01:32:58.231Z,14.33
2019-02-02T01:35:31.989Z,14.43
2019-02-02T01:38:05.381Z,15.33
2019-02-02T01:40:38.873Z,14.07
2019-02-02T01:43:11.472Z,14.27
2019-02-02T01:45:44.510Z,15.77
2019-02-02T01:48:17.660Z,14.67
2019-02-02T01:50:50.405Z,15.77
2019-02-02T01:53:23.589Z,16.10
2019-02-02T01:55:56.744Z,16.27
2019-02-02T01:58:29.564Z,15.50
2019-02-02T02:01:02.354Z,15.03
2019-02-02T02:03:35.437Z,16.50
2019-02-02T02:06:08.075Z,15.20
2019-02-02T02:08:40.679Z,15.17
2019-02-02T02:11:14.184Z,16.07
2019-02-02T02:13:47.781Z,15.87
2019-02-02T02:16:21.688Z,15.70
2019-02-02T02:18:55.195Z,16.07
2019-02-02T02:21:29.211Z,16.17
2019-02-02T02:24:02.376Z,15.87
2019-02-02T02:26:36.360Z,15.87
2019-02-02T02:29:08.466Z,15.40
2019-02-02T02:31:41.121Z,16.03
2019-02-02T02:34:14.226Z,15.57
2019-02-02T02:36:47.707Z,15.50
2019-02-02T02:39:20.307Z,15.80
2019-02-02T02:41:53.007Z,15.77
2019-02-02T02:44:25.784Z,15.63
2019-02-02T02:46:59.029Z,15.30
2019-02-02T02:49:32.768Z,16.90
2019-02-02T02:52:05.908Z,15.80
2019-02-02T02:54:40.394Z,16.07
2019-02-02T02:57:13.943Z,16.90
2019-02-02T02:59:47.089Z,16.50
2019-02-02T03:02:19.940Z,17.23
2019-02-02T03:04:52.638Z,16.93
2019-02-02T03:07:28.093Z,15.87
2019-02-02T03:10:01.596Z,16.00
2019-02-02T03:12:34.856Z,16.80
2019-02-02T03:15:09.425Z,16.23
2019-02-02T03:17:43.857Z,16.20
2019-02-02T03:20:16.935Z,16.83
2019-02-02T03:22:49.864Z,15.57
2019-02-02T03:25:24.103Z,15.93
2019-02-02T03:27:56.987Z,15.17
2019-02-02T03:30:30.751Z,16.00
2019-02-02T03:33:03.326Z,14.87
2019-02-02T03:35:36.582Z,15.67
2019-02-02T03:38:09.118Z,14.70
2019-02-02T03:40:42.623Z,15.50
2019-02-02T03:43:16.654Z,14.50
2019-02-02T03:45:50.426Z,15.50
2019-02-02T03:48:23.295Z,15.63
2019-02-02T03:50:56.509Z,16.40
2019-02-02T03:53:29.577Z,15.23
2019-02-02T03:56:03.054Z,15.53
2019-02-02T03:58:35.931Z,16.27
2019-02-02T04:01:08.711Z,15.73
2019-02-02T04:03:41.904Z,16.97
2019-02-02T04:06:18.441Z,16.80
2019-02-02T04:08:51.877Z,17.80
2019-02-02T04:11:25.643Z,17.83
2019-02-02T04:14:00.178Z,17.43
2019-02-02T04:16:33.374Z,17.50
2019-02-02T04:19:06.292Z,18.70
2019-02-02T04:21:39.461Z,18.80
2019-02-02T04:24:12.688Z,17.43
2019-02-02T04:26:46.922Z,17.90
2019-02-02T04:29:20.064Z,18.63
2019-02-02T04:31:53.294Z,18.53
2019-02-02T04:34:26.649Z,19.10
2019-02-02T04:37:00.278Z,19.60
2019-02-02T04:39:33.484Z,19.70
2019-02-02T04:42:06.731Z,20.00
2019-02-02T04:44:40.235Z,20.43
2019-02-02T04:47:13.995Z,22.40
2019-02-02T04:49:53.346Z,21.20
2019-02-02T04:52:27.380Z,20.03
2019-02-02T04:55:01.414Z,19.10
2019-02-02T04:57:35.717Z,20.50
2019-02-02T05:00:10.238Z,19.83
2019-02-02T05:02:45.830Z,20.80
2019-02-02T05:05:20.700Z,19.67
2019-02-02T05:07:53.995Z,20.57
2019-02-02T05:10:26.700Z,20.13
2019-02-02T05:13:00.344Z,20.93
2019-02-02T05:15:33.490Z,20.30
2019-02-02T05:18:06.933Z,21.23
2019-02-02T05:20:40.252Z,21.27
2019-02-02T05:23:16.876Z,21.93
2019-02-02T05:25:50.281Z,19.80
2019-02-02T05:28:23.699Z,20.87
2019-02-02T05:30:56.484Z,19.83
2019-02-02T05:33:30.869Z,19.67
2019-02-02T05:36:03.667Z,19.00
2019-02-02T05:38:38.309Z,19.10
2019-02-02T05:41:11.330Z,20.37
2019-02-02T05:43:44.687Z,20.43
2019-02-02T05:46:18.240Z,19.63
2019-02-02T05:48:51.947Z,20.47
2019-02-02T05:51:25.493Z,20.17
2019-02-02T05:53:58.745Z,19.90
2019-02-02T05:56:31.978Z,21.40
2019-02-02T05:59:05.083Z,20.73
2019-02-02T06:01:38.166Z,20.80
2019-02-02T06:04:11.968Z,21.47
2019-02-02T06:06:45.273Z,21.30
2019-02-02T06:09:18.213Z,19.43
2019-02-02T06:11:51.520Z,21.63
2019-02-02T06:14:25.118Z,20.13
2019-02-02T06:16:58.296Z,22.47
2019-02-02T06:19:32.250Z,20.37
2019-02-02T06:22:05.899Z,21.97
2019-02-02T06:24:38.895Z,21.37
2019-02-02T06:27:11.910Z,19.57
2019-02-02T06:29:46.035Z,19.17
2019-02-02T06:32:24.700Z,19.90
2019-02-02T06:34:58.883Z,19.80
2019-02-02T06:37:32.655Z,19.70
2019-02-02T06:40:06.696Z,19.47
2019-02-02T06:42:43.531Z,19.97
2019-02-02T06:45:22.384Z,19.83
2019-02-02T06:47:56.661Z,20.73
2019-02-02T06:50:29.872Z,21.93
2019-02-02T06:53:03.554Z,21.90
2019-02-02T06:55:58.096Z,24.13
2019-02-02T06:58:34.090Z,24.17
2019-02-02T07:01:10.654Z,24.50
2019-02-02T07:03:46.610Z,23.30
2019-02-02T07:06:22.198Z,23.83
2019-02-02T07:09:01.699Z,24.87
2019-02-02T07:11:38.927Z,25.83
2019-02-02T07:14:13.991Z,26.53
2019-02-02T07:16:49.998Z,26.00
2019-02-02T07:19:24.411Z,25.93
2019-02-02T07:22:00.458Z,28.20
2019-02-02T07:24:35.949Z,27.90
2019-02-02T07:27:11.795Z,28.40
2019-02-02T07:29:44.951Z,29.53
2019-02-02T07:32:18.810Z,28.63
2019-02-02T07:34:52.627Z,28.43
2019-02-02T07:37:29.627Z,28.07
2019-02-02T07:40:03.679Z,28.57
2019-02-02T07:42:36.563Z,30.37
2019-02-02T07:45:12.163Z,29.37
2019-02-02T07:47:47.733Z,30.77
2019-02-02T07:50:20.409Z,30.47
2019-02-02T07:52:54.354Z,28.77
2019-02-02T07:55:28.672Z,32.43
2019-02-02T07:58:02.267Z,30.90
2019-02-02T08:00:41.488Z,31.43
2019-02-02T08:03:13.854Z,29.73
2019-02-02T08:05:46.523Z,30.07
2019-02-02T08:08:20.367Z,30.10
2019-02-02T08:10:55.243Z,30.27
2019-02-02T08:13:28.377Z,29.10
2019-02-02T08:16:01.759Z,29.97
2019-02-02T08:18:35.361Z,29.67
2019-02-02T08:21:13.127Z,31.73
2019-02-02T08:23:46.978Z,31.17
2019-02-02T08:26:19.691Z,33.70
2019-02-02T08:28:54.095Z,34.53
2019-02-02T08:31:28.108Z,31.70
2019-02-02T08:34:00.851Z,32.30
2019-02-02T08:36:47.011Z,34.03
2019-02-02T08:39:29.012Z,34.73
2019-02-02T08:41:55.887Z,35.67
2019-02-02T08:44:29.562Z,35.47
2019-02-02T08:47:03.174Z,36.97
2019-02-02T08:49:36.832Z,36.23
2019-02-02T08:52:10.153Z,36.07
2019-02-02T08:54:43.195Z,37.23
2019-02-02T08:57:15.855Z,36.93
2019-02-02T08:59:49.595Z,39.77
2019-02-02T09:02:23.104Z,38.13
2019-02-02T09:04:56.491Z,38.93
2019-02-02T09:07:31.328Z,37.27
2019-02-02T09:10:05.790Z,37.30
2019-02-02T09:12:39.234Z,37.63
2019-02-02T09:15:13.408Z,37.90
2019-02-02T09:17:47.488Z,37.13
2019-02-02T09:20:20.408Z,36.77
2019-02-02T09:23:05.869Z,36.87
2019-02-02T09:25:31.093Z,36.10
2019-02-02T09:28:04.070Z,35.83
2019-02-02T09:30:38.125Z,34.10
2019-02-02T09:33:11.155Z,35.37
2019-02-02T09:35:43.516Z,36.40
2019-02-02T09:38:15.821Z,35.80
2019-02-02T09:40:48.322Z,34.93
2019-02-02T09:43:20.718Z,36.27
2019-02-02T09:45:52.929Z,37.53
2019-02-02T09:48:25.073Z,37.00
2019-02-02T09:50:58.295Z,38.57
2019-02-02T09:53:30.698Z,39.50
2019-02-02T09:56:01.938Z,36.57
2019-02-02T09:58:33.909Z,36.47
2019-02-02T10:01:04.660Z,37.00
2019-02-02T10:03:35.709Z,36.63
2019-02-02T10:06:16.518Z,37.00
2019-02-02T10:08:47.216Z,36.27
2019-02-02T10:11:18.384Z,39.93
2019-02-02T10:13:52.349Z,36.60
2019-02-02T10:16:23.399Z,36.47
2019-02-02T10:18:57.628Z,37.87
2019-02-02T10:21:28.314Z,36.70
2019-02-02T10:23:59.594Z,35.90
2019-02-02T10:26:30.439Z,38.10
2019-02-02T10:29:02.553Z,37.73
2019-02-02T10:31:39.676Z,38.30
2019-02-02T10:34:12.425Z,38.57
2019-02-02T10:36:45.197Z,38.20
2019-02-02T10:39:17.784Z,38.60
2019-02-02T10:41:50.616Z,38.93
2019-02-02T10:44:23.107Z,36.67
2019-02-02T10:46:55.137Z,38.17
2019-02-02T10:49:27.274Z,38.03
2019-02-02T10:51:59.397Z,40.90
2019-02-02T10:54:31.821Z,38.07
2019-02-02T10:57:05.631Z,37.40
2019-02-02T10:59:37.810Z,38.10
2019-02-02T11:02:09.910Z,39.13
2019-02-02T11:04:43.349Z,37.93
2019-02-02T11:07:16.284Z,37.20
2019-02-02T11:09:49.653Z,39.87
2019-02-02T11:12:20.570Z,40.20
2019-02-02T11:14:51.777Z,39.63
2019-02-02T11:17:23.311Z,41.37
2019-02-02T11:19:54.123Z,40.80
2019-02-02T11:22:25.164Z,40.60
2019-02-02T11:24:56.533Z,41.70
2019-02-02T11:27:27.862Z,41.43
2019-02-02T11:30:15.816Z,37.97
2019-02-02T11:32:47.346Z,40.80
2019-02-02T11:35:18.578Z,38.60
2019-02-02T11:37:51.588Z,37.93
2019-02-02T11:40:25.403Z,37.83
2019-02-02T11:42:57.299Z,38.77
2019-02-02T11:45:39.498Z,37.37
2019-02-02T11:48:10.882Z,38.23
2019-02-02T11:50:44.605Z,36.73
2019-02-02T11:53:18.803Z,39.63
2019-02-02T11:55:50.503Z,39.13
2019-02-02T11:58:23.103Z,40.00
2019-02-02T12:00:54.690Z,38.87
2019-02-02T12:03:29.782Z,38.03
2019-02-02T12:06:01.545Z,38.87
2019-02-02T12:08:34.671Z,38.67
2019-02-02T12:11:13.963Z,39.87
2019-02-02T12:13:47.082Z,39.90
2019-02-02T12:16:18.615Z,39.87
2019-02-02T12:18:50.052Z,42.73
2019-02-02T12:21:21.971Z,40.33
2019-02-02T12:23:57.396Z,43.90
2019-02-02T12:26:29.313Z,41.37
2019-02-02T12:29:06.151Z,41.10
2019-02-02T12:31:43.739Z,39.17
2019-02-02T12:34:19.577Z,41.07
2019-02-02T12:36:57.396Z,41.67
2019-02-02T12:39:30.983Z,41.30
2019-02-02T12:42:04.135Z,39.87
2019-02-02T12:44:36.792Z,39.57
2019-02-02T12:47:13.179Z,36.77
2019-02-02T12:50:04.005Z,34.27
2019-02-02T12:53:10.451Z,37.63
2019-02-02T12:55:39.300Z,39.37
2019-02-02T12:58:15.883Z,37.53
2019-02-02T13:00:55.101Z,35.93
2019-02-02T13:03:32.141Z,36.47
2019-02-02T13:06:06.750Z,40.00
2019-02-02T13:08:40.772Z,40.50
2019-02-02T13:11:17.656Z,39.77
2019-02-02T13:13:50.568Z,39.77
2019-02-02T13:16:24.092Z,40.87
2019-02-02T13:18:57.287Z,39.87
2019-02-02T13:21:30.729Z,40.13
2019-02-02T13:24:04.503Z,39.83
2019-02-02T13:26:37.716Z,41.57
2019-02-02T13:29:10.485Z,40.73
2019-02-02T13:31:43.624Z,40.73
2019-02-02T13:34:17.348Z,42.83
2019-02-02T13:36:54.182Z,43.13
2019-02-02T13:39:32.618Z,42.70
2019-02-02T13:42:09.996Z,41.10
2019-02-02T13:44:45.925Z,44.33
2019-02-02T13:47:24.048Z,42.73
2019-02-02T13:50:11.649Z,41.70
2019-02-02T13:52:50.864Z,46.03
2019-02-02T13:55:26.520Z,43.70
2019-02-02T13:58:01.072Z,47.87
2019-02-02T14:00:37.413Z,48.47
2019-02-02T14:03:15.481Z,48.40
2019-02-02T14:05:51.121Z,48.60
2019-02-02T14:08:27.113Z,45.20
2019-02-02T14:11:05.483Z,46.37
2019-02-02T14:13:42.424Z,48.80
2019-02-02T14:16:17.856Z,47.23
2019-02-02T14:18:53.064Z,45.50
2019-02-02T14:21:28.841Z,46.03
2019-02-02T14:24:03.464Z,45.67
2019-02-02T14:26:42.174Z,47.93
2019-02-02T14:29:15.997Z,48.30
2019-02-02T14:31:51.218Z,45.83
2019-02-02T14:34:39.605Z,46.07
2019-02-02T14:37:05.588Z,48.43
2019-02-02T14:39:39.598Z,45.23
2019-02-02T14:42:13.340Z,44.83
2019-02-02T14:44:48.012Z,45.00
2019-02-02T14:47:21.241Z,46.83
2019-02-02T14:49:57.167Z,47.03
2019-02-02T14:52:34.619Z,44.10
2019-02-02T14:55:11.917Z,46.97
2019-02-02T14:57:48.221Z,46.60
2019-02-02T15:00:23.311Z,47.03
2019-02-02T15:02:58.182Z,47.43
2019-02-02T15:05:42.087Z,46.13
2019-02-02T15:08:03.747Z,46.67
2019-02-02T15:10:36.878Z,45.60
2019-02-02T15:13:13.934Z,46.70
2019-02-02T15:15:48.927Z,47.40
2019-02-02T15:18:22.685Z,46.77
2019-02-02T15:20:57.929Z,48.20
2019-02-02T15:23:32.309Z,47.50
2019-02-02T15:26:07.359Z,50.27
2019-02-02T15:28:41.496Z,48.23
2019-02-02T15:31:19.027Z,49.03
2019-02-02T15:33:53.628Z,48.47
2019-02-02T15:36:29.516Z,51.50
2019-02-02T15:39:05.603Z,51.00
2019-02-02T15:41:52.343Z,49.70
2019-02-02T15:44:18.530Z,48.80
2019-02-02T15:46:53.322Z,48.53
2019-02-02T15:49:26.381Z,49.37
2019-02-02T15:51:59.298Z,49.53
2019-02-02T15:54:32.398Z,51.00
2019-02-02T15:57:06.997Z,49.93
2019-02-02T15:59:38.894Z,56.40
2019-02-02T16:02:13.137Z,49.20
2019-02-02T16:04:44.120Z,50.60
2019-02-02T16:07:16.943Z,49.50
2019-02-02T16:09:49.828Z,52.17
2019-02-02T16:12:23.313Z,50.67
2019-02-02T16:14:55.036Z,51.13
2019-02-02T16:17:26.312Z,50.43
2019-02-02T16:19:59.293Z,48.60
2019-02-02T16:22:32.361Z,49.40
2019-02-02T16:25:04.099Z,51.73
2019-02-02T16:27:36.093Z,49.53
2019-02-02T16:30:10.832Z,51.10
2019-02-02T16:32:43.657Z,51.10
2019-02-02T16:35:17.297Z,54.00
2019-02-02T16:37:49.981Z,52.70
2019-02-02T16:40:23.511Z,54.43
2019-02-02T16:42:57.008Z,53.70
2019-02-02T16:45:30.569Z,48.53
2019-02-02T16:48:02.974Z,55.07
2019-02-02T16:50:37.065Z,55.17
2019-02-02T16:53:09.825Z,51.47
2019-02-02T16:55:42.320Z,54.63
2019-02-02T16:58:14.833Z,54.53
2019-02-02T17:00:47.756Z,55.27
2019-02-02T17:03:20.711Z,54.37
2019-02-02T17:05:51.681Z,51.50
2019-02-02T17:08:24.630Z,54.53
2019-02-02T17:10:56.644Z,54.47
2019-02-02T17:13:29.570Z,55.27
2019-02-02T17:16:02.842Z,56.77
2019-02-02T17:18:33.907Z,53.63
2019-02-02T17:21:05.445Z,52.33
2019-02-02T17:23:38.487Z,56.10
2019-02-02T17:26:10.747Z,57.97
2019-02-02T17:28:45.161Z,55.50
2019-02-02T17:31:16.821Z,54.80
2019-02-02T17:33:49.029Z,54.60
2019-02-02T17:36:21.055Z,54.53
2019-02-02T17:38:53.408Z,54.17
2019-02-02T17:41:34.410Z,56.10
2019-02-02T17:44:07.676Z,56.40
2019-02-02T17:46:40.590Z,55.40
2019-02-02T17:49:14.922Z,54.40
2019-02-02T17:51:47.755Z,54.80
2019-02-02T17:54:20.758Z,56.67
2019-02-02T17:56:52.629Z,56.30
2019-02-02T17:59:24.270Z,59.57
2019-02-02T18:01:57.174Z,55.30
2019-02-02T18:04:39.109Z,57.63
2019-02-02T18:07:05.617Z,61.27
2019-02-02T18:09:38.686Z,59.60
2019-02-02T18:12:11.140Z,58.17
2019-02-02T18:14:45.757Z,57.97
2019-02-02T18:17:17.930Z,58.93
2019-02-02T18:19:50.210Z,58.00
2019-02-02T18:22:21.813Z,56.63
2019-02-02T18:24:53.333Z,60.33
2019-02-02T18:27:24.836Z,57.50
2019-02-02T18:29:57.556Z,59.87
2019-02-02T18:32:29.371Z,58.00
2019-02-02T18:35:03.481Z,61.17
2019-02-02T18:37:35.890Z,59.40
2019-02-02T18:40:08.097Z,58.97
2019-02-02T18:42:39.670Z,59.00
2019-02-02T18:45:19.109Z,58.50
2019-02-02T18:47:50.358Z,59.97
2019-02-02T18:50:23.099Z,61.20
2019-02-02T18:52:56.320Z,52.87
2019-02-02T18:55:40.119Z,58.83
2019-02-02T18:58:14.951Z,57.40
2019-02-02T19:00:46.414Z,59.60
2019-02-02T19:03:19.391Z,57.03
2019-02-02T19:05:50.441Z,57.90
2019-02-02T19:08:23.792Z,57.20
2019-02-02T19:10:56.594Z,61.97
2019-02-02T19:13:28.397Z,58.00
2019-02-02T19:16:01.378Z,55.87
2019-02-02T19:18:35.514Z,55.93
2019-02-02T19:21:09.186Z,54.77
2019-02-02T19:23:41.869Z,55.00
2019-02-02T19:26:14.244Z,56.27
2019-02-02T19:28:45.358Z,56.30
2019-02-02T19:31:16.642Z,53.07
2019-02-02T19:33:49.684Z,53.03
2019-02-02T19:36:21.176Z,54.60
2019-02-02T19:38:52.540Z,53.57
2019-02-02T19:41:47.556Z,50.07
2019-02-02T19:44:13.467Z,50.77
2019-02-02T19:46:48.403Z,54.47
2019-02-02T19:49:20.489Z,49.47
2019-02-02T19:51:58.455Z,49.87
2019-02-02T19:54:30.011Z,46.37
2019-02-02T19:57:01.018Z,46.00
2019-02-02T19:59:32.710Z,47.73
2019-02-02T20:02:04.510Z,48.60
2019-02-02T20:04:35.965Z,49.07
2019-02-02T20:07:08.307Z,48.47
2019-02-02T20:09:40.504Z,49.73
2019-02-02T20:12:11.273Z,44.87
2019-02-02T20:14:42.164Z,44.47
2019-02-02T20:17:14.701Z,46.07
2019-02-02T20:19:46.108Z,40.93
2019-02-02T20:22:18.835Z,40.07
2019-02-02T20:24:53.589Z,41.40
2019-02-02T20:27:25.825Z,40.83
2019-02-02T20:29:57.778Z,43.43
2019-02-02T20:32:29.749Z,39.43
2019-02-02T20:35:02.040Z,39.87
2019-02-02T20:37:33.899Z,41.30
2019-02-02T20:40:06.859Z,38.63
2019-02-02T20:42:39.535Z,41.83
2019-02-02T20:45:13.836Z,41.87
2019-02-02T20:47:46.184Z,41.80
2019-02-02T20:50:18.942Z,42.33
2019-02-02T20:52:52.325Z,42.07
2019-02-02T20:55:30.225Z,42.03
2019-02-02T20:58:09.617Z,40.10
2019-02-02T21:00:44.013Z,40.93
2019-02-02T21:03:15.498Z,44.43
2019-02-02T21:05:52.815Z,42.77
2019-02-02T21:08:27.808Z,43.30
2019-02-02T21:11:03.442Z,44.10
2019-02-02T21:13:35.425Z,44.20
2019-02-02T21:16:08.112Z,42.37
2019-02-02T21:18:39.802Z,43.60
2019-02-02T21:21:11.544Z,42.70
2019-02-02T21:23:43.523Z,41.53
2019-02-02T21:26:15.154Z,42.70
2019-02-02T21:28:50.457Z,42.43
2019-02-02T21:31:22.215Z,40.90
2019-02-02T21:33:54.481Z,43.33
2019-02-02T21:36:36.196Z,40.60
2019-02-02T21:39:07.990Z,43.27
2019-02-02T21:41:43.541Z,44.73
2019-02-02T21:44:24.944Z,42.30
2019-02-02T21:47:01.489Z,43.33
2019-02-02T21:49:34.123Z,42.93
2019-02-02T21:53:11.363Z,43.73
2019-02-02T21:56:27.833Z,43.03
2019-02-02T21:59:21.459Z,43.93
2019-02-02T22:02:32.947Z,42.50
2019-02-02T22:05:47.527Z,42.97
2019-02-02T22:08:43.049Z,43.47
2019-02-02T22:11:26.865Z,43.00
2019-02-02T22:13:54.735Z,42.20
2019-02-02T22:17:09.247Z,43.57
2019-02-02T22:19:31.881Z,43.70
2019-02-02T22:22:14.209Z,41.90
2019-02-02T22:25:00.357Z,40.10
2019-02-02T22:27:44.980Z,43.57
2019-02-02T22:30:38.990Z,45.53
2019-02-02T22:33:22.394Z,48.80
2019-02-02T22:36:01.947Z,49.20
2019-02-02T22:39:04.588Z,49.43
2019-02-02T22:41:54.854Z,52.43
2019-02-02T22:44:36.653Z,53.27
2019-02-02T22:47:24.407Z,52.37
2019-02-02T22:50:25.042Z,55.00
2019-02-02T22:54:00.119Z,55.10
2019-02-02T22:56:03.521Z,55.73
2019-02-02T22:58:41.416Z,56.70
2019-02-02T23:01:28.045Z,57.77
2019-02-02T23:05:02.338Z,55.20
2019-02-02T23:12:33.840Z,53.63
2019-02-02T23:15:51.701Z,54.63
2019-02-02T23:18:26.235Z,53.20
2019-02-02T23:21:01.594Z,55.03
2019-02-02T23:23:35.495Z,55.07
2019-02-02T23:26:08.719Z,52.80
2019-02-02T23:28:41.296Z,51.43
2019-02-02T23:31:16.398Z,51.93
2019-02-02T23:33:50.537Z,50.60
2019-02-02T23:36:25.452Z,52.93
2019-02-02T23:38:59.728Z,52.17
2019-02-02T23:41:36.529Z,50.00
2019-02-02T23:44:14.951Z,49.20
2019-02-02T23:46:54.150Z,49.57
2019-02-02T23:49:25.964Z,49.03
2019-02-02T23:52:00.080Z,50.70
2019-02-02T23:54:32.952Z,48.87
2019-02-02T23:57:06.274Z,51.47
2019-02-02T23:59:40.032Z,48.73
